US Aviators Van Nuys Flight School Los Angeles Pilot school at Van Nuys Simulator Flight Training Profesional Pilot Instruction Learn to Fly

U.S. Aviators

Learn to fly here! (818) 779-2105

Weather at Van Nuys Airport

Observed:Fri Jul 3, 12:51 PDT
Age:26 min ago
Wind:SE at 2 mph
Visibility:10 miles
Clouds:Clear skies
Temperature:88°F (31°C)
Dewpoint:55°F (13°C)
Humidity:33%
Barometer:1013 hPa (29.91 in Hg)

METAR

KVNY 031951Z 14004KT 10SM CLR 31/13 A2991 RMK AO2 SLP119 T03060133 $